sensor_id;sensor_type;location;lat;lon;timestamp;P1;durP1;ratioP1;P2;durP2;ratioP2
6561;SDS011;3314;50.890;4.722;2024-02-04T00:00:21;13.9;;;4.9;;
6561;SDS011;3314;50.890;4.722;2024-02-04T00:02:23;14.5;;;4.7;;
6561;SDS011;3314;50.890;4.722;2024-02-04T00:04:23;12.4;;;4.5;;
6561;SDS011;3314;50.890;4.722;2024-02-04T00:06:23;10.2;;;3.8;;
6561;SDS011;3314;50.890;4.722;2024-02-04T00:08:23;11.2;;;4.7;;
6561;SDS011;3314;50.890;4.722;2024-02-04T00:10:22;11.2;;;4.8;;
6561;SDS011;3314;50.890;4.722;2024-02-04T00:12:22;12.6;;;4.3;;
6561;SDS011;3314;50.890;4.722;2024-02-04T00:14:22;11.8;;;4.1;;
6561;SDS011;3314;50.890;4.722;2024-02-04T00:16:22;10.6;;;4.3;;
6561;SDS011;3314;50.890;4.722;2024-02-04T00:18:22;12.9;;;3.9;;
6561;SDS011;3314;50.890;4.722;2024-02-04T00:20:22;11.8;;;4.6;;
6561;SDS011;3314;50.890;4.722;2024-02-04T00:22:21;12.2;;;4.2;;
6561;SDS011;3314;50.890;4.722;2024-02-04T00:24:21;8.4;;;3.7;;
6561;SDS011;3314;50.890;4.722;2024-02-04T00:26:21;10.9;;;4.2;;
6561;SDS011;3314;50.890;4.722;2024-02-04T00:28:22;11.0;;;3.9;;
6561;SDS011;3314;50.890;4.722;2024-02-04T00:30:21;9.5;;;3.8;;
6561;SDS011;3314;50.890;4.722;2024-02-04T00:32:21;9.3;;;3.4;;
6561;SDS011;3314;50.890;4.722;2024-02-04T00:34:21;12.8;;;3.9;;
6561;SDS011;3314;50.890;4.722;2024-02-04T00:36:22;11.3;;;3.8;;
6561;SDS011;3314;50.890;4.722;2024-02-04T00:38:11;12.7;;;3.7;;
6561;SDS011;3314;50.890;4.722;2024-02-04T00:40:11;9.8;;;4.3;;
6561;SDS011;3314;50.890;4.722;2024-02-04T00:42:10;10.7;;;4.1;;
6561;SDS011;3314;50.890;4.722;2024-02-04T00:44:10;8.2;;;3.2;;
6561;SDS011;3314;50.890;4.722;2024-02-04T00:46:11;11.1;;;3.4;;
6561;SDS011;3314;50.890;4.722;2024-02-04T00:48:10;9.4;;;3.6;;
6561;SDS011;3314;50.890;4.722;2024-02-04T00:50:10;9.9;;;3.7;;
6561;SDS011;3314;50.890;4.722;2024-02-04T00:52:10;9.3;;;3.1;;
6561;SDS011;3314;50.890;4.722;2024-02-04T00:54:09;9.6;;;3.6;;
6561;SDS011;3314;50.890;4.722;2024-02-04T00:56:09;11.8;;;3.3;;
6561;SDS011;3314;50.890;4.722;2024-02-04T00:58:09;10.7;;;3.3;;
6561;SDS011;3314;50.890;4.722;2024-02-04T01:00:10;10.2;;;3.2;;
6561;SDS011;3314;50.890;4.722;2024-02-04T01:02:12;9.1;;;2.9;;
6561;SDS011;3314;50.890;4.722;2024-02-04T01:04:12;11.3;;;3.4;;
6561;SDS011;3314;50.890;4.722;2024-02-04T01:06:12;9.0;;;3.0;;
6561;SDS011;3314;50.890;4.722;2024-02-04T01:08:11;9.4;;;2.9;;
6561;SDS011;3314;50.890;4.722;2024-02-04T01:10:16;8.2;;;3.1;;
6561;SDS011;3314;50.890;4.722;2024-02-04T01:12:10;7.0;;;2.8;;
6561;SDS011;3314;50.890;4.722;2024-02-04T01:14:15;7.6;;;2.8;;
6561;SDS011;3314;50.890;4.722;2024-02-04T01:16:17;8.5;;;2.8;;
6561;SDS011;3314;50.890;4.722;2024-02-04T01:18:07;11.5;;;3.4;;
6561;SDS011;3314;50.890;4.722;2024-02-04T01:20:12;8.3;;;2.5;;
6561;SDS011;3314;50.890;4.722;2024-02-04T01:22:16;7.6;;;2.7;;
6561;SDS011;3314;50.890;4.722;2024-02-04T01:24:09;9.8;;;3.8;;
6561;SDS011;3314;50.890;4.722;2024-02-04T01:26:13;9.8;;;3.3;;
6561;SDS011;3314;50.890;4.722;2024-02-04T01:28:07;7.4;;;2.4;;
6561;SDS011;3314;50.890;4.722;2024-02-04T01:30:12;9.0;;;3.0;;
6561;SDS011;3314;50.890;4.722;2024-02-04T01:32:17;11.4;;;2.8;;
6561;SDS011;3314;50.890;4.722;2024-02-04T01:34:09;12.0;;;3.2;;
6561;SDS011;3314;50.890;4.722;2024-02-04T01:36:09;11.5;;;3.9;;
6561;SDS011;3314;50.890;4.722;2024-02-04T01:38:10;7.8;;;2.6;;
6561;SDS011;3314;50.890;4.722;2024-02-04T01:40:11;12.1;;;2.5;;
6561;SDS011;3314;50.890;4.722;2024-02-04T01:42:03;9.4;;;2.9;;
6561;SDS011;3314;50.890;4.722;2024-02-04T01:44:03;8.0;;;3.1;;
6561;SDS011;3314;50.890;4.722;2024-02-04T01:46:03;10.8;;;2.8;;
6561;SDS011;3314;50.890;4.722;2024-02-04T01:48:08;8.2;;;2.3;;
6561;SDS011;3314;50.890;4.722;2024-02-04T01:50:11;8.1;;;2.8;;
6561;SDS011;3314;50.890;4.722;2024-02-04T01:52:02;8.1;;;2.7;;
6561;SDS011;3314;50.890;4.722;2024-02-04T01:54:02;8.4;;;2.9;;
6561;SDS011;3314;50.890;4.722;2024-02-04T01:56:05;10.0;;;2.6;;
6561;SDS011;3314;50.890;4.722;2024-02-04T01:58:08;12.7;;;3.2;;
6561;SDS011;3314;50.890;4.722;2024-02-04T01:59:59;7.9;;;2.7;;
6561;SDS011;3314;50.890;4.722;2024-02-04T02:02:01;10.2;;;3.4;;
6561;SDS011;3314;50.890;4.722;2024-02-04T02:04:05;8.5;;;2.8;;
6561;SDS011;3314;50.890;4.722;2024-02-04T02:06:08;9.2;;;2.5;;
6561;SDS011;3314;50.890;4.722;2024-02-04T02:07:59;8.1;;;3.0;;
6561;SDS011;3314;50.890;4.722;2024-02-04T02:10:06;8.2;;;2.1;;
6561;SDS011;3314;50.890;4.722;2024-02-04T02:12:02;8.1;;;2.6;;
6561;SDS011;3314;50.890;4.722;2024-02-04T02:14:04;8.5;;;2.8;;
6561;SDS011;3314;50.890;4.722;2024-02-04T02:16:01;8.7;;;3.1;;
6561;SDS011;3314;50.890;4.722;2024-02-04T02:18:07;9.2;;;3.1;;
6561;SDS011;3314;50.890;4.722;2024-02-04T02:19:59;12.0;;;3.4;;
6561;SDS011;3314;50.890;4.722;2024-02-04T02:22:06;10.7;;;3.0;;
6561;SDS011;3314;50.890;4.722;2024-02-04T02:24:03;10.7;;;3.5;;
6561;SDS011;3314;50.890;4.722;2024-02-04T02:26:06;9.7;;;2.9;;
6561;SDS011;3314;50.890;4.722;2024-02-04T02:27:55;9.0;;;2.8;;
6561;SDS011;3314;50.890;4.722;2024-02-04T02:29:59;13.1;;;3.4;;
6561;SDS011;3314;50.890;4.722;2024-02-04T02:32:04;10.0;;;3.0;;
6561;SDS011;3314;50.890;4.722;2024-02-04T02:33:57;11.9;;;3.3;;
6561;SDS011;3314;50.890;4.722;2024-02-04T02:35:58;10.0;;;3.6;;
6561;SDS011;3314;50.890;4.722;2024-02-04T02:38:04;11.3;;;3.2;;
6561;SDS011;3314;50.890;4.722;2024-02-04T02:39:58;9.8;;;3.1;;
6561;SDS011;3314;50.890;4.722;2024-02-04T02:42:04;10.9;;;3.5;;
6561;SDS011;3314;50.890;4.722;2024-02-04T02:43:52;12.6;;;3.4;;
6561;SDS011;3314;50.890;4.722;2024-02-04T02:45:56;8.8;;;3.7;;
6561;SDS011;3314;50.890;4.722;2024-02-04T02:47:58;13.2;;;3.4;;
6561;SDS011;3314;50.890;4.722;2024-02-04T02:50:04;13.2;;;3.7;;
6561;SDS011;3314;50.890;4.722;2024-02-04T02:51:54;9.3;;;3.6;;
6561;SDS011;3314;50.890;4.722;2024-02-04T02:53:55;12.1;;;3.8;;
6561;SDS011;3314;50.890;4.722;2024-02-04T02:55:55;10.7;;;3.4;;
6561;SDS011;3314;50.890;4.722;2024-02-04T02:57:59;11.6;;;4.5;;
6561;SDS011;3314;50.890;4.722;2024-02-04T02:59:49;12.4;;;4.3;;
6561;SDS011;3314;50.890;4.722;2024-02-04T03:01:53;10.1;;;4.2;;
6561;SDS011;3314;50.890;4.722;2024-02-04T03:03:57;11.3;;;4.4;;
6561;SDS011;3314;50.890;4.722;2024-02-04T03:06:00;13.1;;;4.6;;
6561;SDS011;3314;50.890;4.722;2024-02-04T03:07:50;14.3;;;4.9;;
6561;SDS011;3314;50.890;4.722;2024-02-04T03:09:52;13.4;;;4.6;;
6561;SDS011;3314;50.890;4.722;2024-02-04T03:11:53;17.0;;;5.0;;
6561;SDS011;3314;50.890;4.722;2024-02-04T03:13:53;13.2;;;5.1;;
6561;SDS011;3314;50.890;4.722;2024-02-04T03:15:56;15.6;;;5.4;;
6561;SDS011;3314;50.890;4.722;2024-02-04T03:17:45;13.8;;;5.2;;
6561;SDS011;3314;50.890;4.722;2024-02-04T03:19:47;13.2;;;5.0;;
6561;SDS011;3314;50.890;4.722;2024-02-04T03:21:47;13.8;;;4.7;;
6561;SDS011;3314;50.890;4.722;2024-02-04T03:23:47;12.2;;;5.2;;
6561;SDS011;3314;50.890;4.722;2024-02-04T03:25:47;14.9;;;5.7;;
6561;SDS011;3314;50.890;4.722;2024-02-04T03:27:50;13.2;;;5.6;;
6561;SDS011;3314;50.890;4.722;2024-02-04T03:29:55;12.8;;;4.8;;
6561;SDS011;3314;50.890;4.722;2024-02-04T03:31:43;16.6;;;5.5;;
6561;SDS011;3314;50.890;4.722;2024-02-04T03:33:43;12.8;;;4.9;;
6561;SDS011;3314;50.890;4.722;2024-02-04T03:35:44;13.2;;;5.3;;
6561;SDS011;3314;50.890;4.722;2024-02-04T03:37:44;15.8;;;5.5;;
6561;SDS011;3314;50.890;4.722;2024-02-04T03:39:47;13.2;;;5.6;;
6561;SDS011;3314;50.890;4.722;2024-02-04T03:41:51;15.5;;;5.5;;
6561;SDS011;3314;50.890;4.722;2024-02-04T03:43:52;13.3;;;5.4;;
6561;SDS011;3314;50.890;4.722;2024-02-04T03:45:44;18.0;;;5.6;;
6561;SDS011;3314;50.890;4.722;2024-02-04T03:47:46;15.1;;;5.8;;
6561;SDS011;3314;50.890;4.722;2024-02-04T03:49:46;12.2;;;5.7;;
6561;SDS011;3314;50.890;4.722;2024-02-04T03:51:48;15.0;;;5.5;;
6561;SDS011;3314;50.890;4.722;2024-02-04T03:53:50;15.6;;;6.0;;
6561;SDS011;3314;50.890;4.722;2024-02-04T03:55:44;15.8;;;5.4;;
6561;SDS011;3314;50.890;4.722;2024-02-04T03:57:47;15.7;;;4.9;;
6561;SDS011;3314;50.890;4.722;2024-02-04T03:59:49;15.6;;;4.7;;
6561;SDS011;3314;50.890;4.722;2024-02-04T04:01:46;11.6;;;5.2;;
6561;SDS011;3314;50.890;4.722;2024-02-04T04:03:46;14.2;;;4.9;;
6561;SDS011;3314;50.890;4.722;2024-02-04T04:05:47;16.4;;;5.1;;
6561;SDS011;3314;50.890;4.722;2024-02-04T04:07:47;12.0;;;4.9;;
6561;SDS011;3314;50.890;4.722;2024-02-04T04:09:38;15.4;;;4.3;;
6561;SDS011;3314;50.890;4.722;2024-02-04T04:11:38;13.1;;;4.3;;
6561;SDS011;3314;50.890;4.722;2024-02-04T04:13:38;16.3;;;5.2;;
6561;SDS011;3314;50.890;4.722;2024-02-04T04:15:43;14.9;;;4.7;;
6561;SDS011;3314;50.890;4.722;2024-02-04T04:17:47;14.8;;;4.3;;
6561;SDS011;3314;50.890;4.722;2024-02-04T04:19:38;13.9;;;4.5;;
6561;SDS011;3314;50.890;4.722;2024-02-04T04:21:38;14.1;;;4.7;;
6561;SDS011;3314;50.890;4.722;2024-02-04T04:23:40;14.4;;;4.6;;
6561;SDS011;3314;50.890;4.722;2024-02-04T04:25:42;16.6;;;5.1;;
6561;SDS011;3314;50.890;4.722;2024-02-04T04:27:42;11.8;;;4.2;;
6561;SDS011;3314;50.890;4.722;2024-02-04T04:29:45;12.6;;;4.0;;
6561;SDS011;3314;50.890;4.722;2024-02-04T04:31:36;11.8;;;4.3;;
6561;SDS011;3314;50.890;4.722;2024-02-04T04:33:35;13.2;;;3.8;;
6561;SDS011;3314;50.890;4.722;2024-02-04T04:35:35;12.9;;;4.2;;
6561;SDS011;3314;50.890;4.722;2024-02-04T04:37:35;12.7;;;4.1;;
6561;SDS011;3314;50.890;4.722;2024-02-04T04:39:35;13.2;;;4.9;;
6561;SDS011;3314;50.890;4.722;2024-02-04T04:41:39;16.2;;;4.9;;
6561;SDS011;3314;50.890;4.722;2024-02-04T04:43:43;11.0;;;4.1;;
6561;SDS011;3314;50.890;4.722;2024-02-04T04:45:34;11.0;;;4.0;;
6561;SDS011;3314;50.890;4.722;2024-02-04T04:47:34;11.6;;;4.6;;
6561;SDS011;3314;50.890;4.722;2024-02-04T04:49:34;10.0;;;4.1;;
6561;SDS011;3314;50.890;4.722;2024-02-04T04:51:34;11.9;;;3.9;;
6561;SDS011;3314;50.890;4.722;2024-02-04T04:53:36;11.6;;;4.2;;
6561;SDS011;3314;50.890;4.722;2024-02-04T04:55:39;12.8;;;3.8;;
6561;SDS011;3314;50.890;4.722;2024-02-04T04:57:40;10.4;;;3.6;;
6561;SDS011;3314;50.890;4.722;2024-02-04T04:59:32;15.4;;;4.7;;
6561;SDS011;3314;50.890;4.722;2024-02-04T05:01:33;12.7;;;3.8;;
6561;SDS011;3314;50.890;4.722;2024-02-04T05:03:33;12.3;;;4.2;;
6561;SDS011;3314;50.890;4.722;2024-02-04T05:05:34;11.5;;;4.5;;
6561;SDS011;3314;50.890;4.722;2024-02-04T05:07:34;11.1;;;3.7;;
6561;SDS011;3314;50.890;4.722;2024-02-04T05:09:34;13.1;;;4.3;;
6561;SDS011;3314;50.890;4.722;2024-02-04T05:11:34;8.6;;;3.7;;
6561;SDS011;3314;50.890;4.722;2024-02-04T05:13:33;10.7;;;3.1;;
6561;SDS011;3314;50.890;4.722;2024-02-04T05:15:34;12.2;;;4.2;;
6561;SDS011;3314;50.890;4.722;2024-02-04T05:17:35;12.1;;;3.8;;
6561;SDS011;3314;50.890;4.722;2024-02-04T05:19:35;9.7;;;3.9;;
6561;SDS011;3314;50.890;4.722;2024-02-04T05:21:37;9.0;;;3.0;;
6561;SDS011;3314;50.890;4.722;2024-02-04T05:23:25;10.8;;;3.6;;
6561;SDS011;3314;50.890;4.722;2024-02-04T05:25:26;9.1;;;3.2;;
6561;SDS011;3314;50.890;4.722;2024-02-04T05:27:26;10.3;;;2.8;;
6561;SDS011;3314;50.890;4.722;2024-02-04T05:29:25;12.5;;;3.4;;
6561;SDS011;3314;50.890;4.722;2024-02-04T05:31:25;8.6;;;2.8;;
6561;SDS011;3314;50.890;4.722;2024-02-04T05:33:25;10.4;;;2.9;;
6561;SDS011;3314;50.890;4.722;2024-02-04T05:35:24;11.6;;;3.5;;
6561;SDS011;3314;50.890;4.722;2024-02-04T05:37:24;7.8;;;2.6;;
6561;SDS011;3314;50.890;4.722;2024-02-04T05:39:24;11.7;;;3.2;;
6561;SDS011;3314;50.890;4.722;2024-02-04T05:41:24;10.2;;;2.4;;
6561;SDS011;3314;50.890;4.722;2024-02-04T05:43:24;8.0;;;2.9;;
6561;SDS011;3314;50.890;4.722;2024-02-04T05:45:28;8.1;;;2.5;;
6561;SDS011;3314;50.890;4.722;2024-02-04T05:47:28;8.1;;;2.4;;
6561;SDS011;3314;50.890;4.722;2024-02-04T05:49:27;9.2;;;2.7;;
6561;SDS011;3314;50.890;4.722;2024-02-04T05:51:27;7.4;;;2.6;;
6561;SDS011;3314;50.890;4.722;2024-02-04T05:53:29;8.5;;;2.8;;
6561;SDS011;3314;50.890;4.722;2024-02-04T05:55:30;10.7;;;2.3;;
6561;SDS011;3314;50.890;4.722;2024-02-04T05:57:35;6.8;;;2.4;;
6561;SDS011;3314;50.890;4.722;2024-02-04T05:59:27;9.6;;;2.3;;
6561;SDS011;3314;50.890;4.722;2024-02-04T06:01:28;10.5;;;3.0;;
6561;SDS011;3314;50.890;4.722;2024-02-04T06:03:31;12.6;;;2.8;;
6561;SDS011;3314;50.890;4.722;2024-02-04T06:05:19;9.1;;;3.0;;
6561;SDS011;3314;50.890;4.722;2024-02-04T06:07:19;8.9;;;2.7;;
6561;SDS011;3314;50.890;4.722;2024-02-04T06:09:23;12.8;;;3.1;;
6561;SDS011;3314;50.890;4.722;2024-02-04T06:11:25;11.1;;;3.5;;
6561;SDS011;3314;50.890;4.722;2024-02-04T06:13:25;9.4;;;2.9;;
6561;SDS011;3314;50.890;4.722;2024-02-04T06:15:30;12.3;;;3.6;;
6561;SDS011;3314;50.890;4.722;2024-02-04T06:17:19;10.7;;;4.2;;
6561;SDS011;3314;50.890;4.722;2024-02-04T06:19:23;14.4;;;3.4;;
6561;SDS011;3314;50.890;4.722;2024-02-04T06:21:28;11.2;;;3.7;;
6561;SDS011;3314;50.890;4.722;2024-02-04T06:23:21;15.0;;;4.4;;
6561;SDS011;3314;50.890;4.722;2024-02-04T06:25:25;12.1;;;4.2;;
6561;SDS011;3314;50.890;4.722;2024-02-04T06:27:30;16.7;;;4.6;;
6561;SDS011;3314;50.890;4.722;2024-02-04T06:29:22;12.7;;;5.3;;
6561;SDS011;3314;50.890;4.722;2024-02-04T06:31:23;16.1;;;4.2;;
6561;SDS011;3314;50.890;4.722;2024-02-04T06:33:28;20.2;;;5.3;;
6561;SDS011;3314;50.890;4.722;2024-02-04T06:35:21;14.1;;;4.8;;
6561;SDS011;3314;50.890;4.722;2024-02-04T06:37:26;14.3;;;4.1;;
6561;SDS011;3314;50.890;4.722;2024-02-04T06:39:18;14.6;;;5.4;;
6561;SDS011;3314;50.890;4.722;2024-02-04T06:41:23;13.4;;;4.5;;
6561;SDS011;3314;50.890;4.722;2024-02-04T06:43:23;11.8;;;4.1;;
6561;SDS011;3314;50.890;4.722;2024-02-04T06:45:17;15.3;;;4.6;;
6561;SDS011;3314;50.890;4.722;2024-02-04T06:47:21;21.2;;;5.6;;
6561;SDS011;3314;50.890;4.722;2024-02-04T06:49:27;13.8;;;4.7;;
6561;SDS011;3314;50.890;4.722;2024-02-04T06:51:19;14.2;;;4.6;;
6561;SDS011;3314;50.890;4.722;2024-02-04T06:53:23;13.4;;;4.5;;
6561;SDS011;3314;50.890;4.722;2024-02-04T06:55:16;12.4;;;4.3;;
6561;SDS011;3314;50.890;4.722;2024-02-04T06:57:21;18.3;;;4.8;;
6561;SDS011;3314;50.890;4.722;2024-02-04T06:59:12;15.5;;;4.3;;
6561;SDS011;3314;50.890;4.722;2024-02-04T07:01:14;14.3;;;4.6;;
6561;SDS011;3314;50.890;4.722;2024-02-04T07:03:15;12.2;;;4.4;;
6561;SDS011;3314;50.890;4.722;2024-02-04T07:05:17;14.0;;;4.7;;
6561;SDS011;3314;50.890;4.722;2024-02-04T07:07:19;14.1;;;4.7;;
6561;SDS011;3314;50.890;4.722;2024-02-04T07:09:21;12.7;;;5.1;;
6561;SDS011;3314;50.890;4.722;2024-02-04T07:11:11;13.2;;;3.8;;
6561;SDS011;3314;50.890;4.722;2024-02-04T07:13:12;11.5;;;4.0;;
6561;SDS011;3314;50.890;4.722;2024-02-04T07:15:13;12.0;;;4.6;;
6561;SDS011;3314;50.890;4.722;2024-02-04T07:17:13;10.9;;;3.7;;
6561;SDS011;3314;50.890;4.722;2024-02-04T07:19:14;10.5;;;3.7;;
6561;SDS011;3314;50.890;4.722;2024-02-04T07:21:13;10.5;;;4.1;;
6561;SDS011;3314;50.890;4.722;2024-02-04T07:23:13;10.7;;;3.5;;
6561;SDS011;3314;50.890;4.722;2024-02-04T07:25:13;11.8;;;4.2;;
6561;SDS011;3314;50.890;4.722;2024-02-04T07:27:14;12.5;;;4.5;;
6561;SDS011;3314;50.890;4.722;2024-02-04T07:29:13;10.5;;;4.4;;
6561;SDS011;3314;50.890;4.722;2024-02-04T07:31:13;11.5;;;4.1;;
6561;SDS011;3314;50.890;4.722;2024-02-04T07:33:13;12.1;;;4.6;;
6561;SDS011;3314;50.890;4.722;2024-02-04T07:35:16;11.9;;;4.0;;
6561;SDS011;3314;50.890;4.722;2024-02-04T07:37:05;12.1;;;4.5;;
6561;SDS011;3314;50.890;4.722;2024-02-04T07:39:05;11.4;;;4.3;;
6561;SDS011;3314;50.890;4.722;2024-02-04T07:41:07;14.6;;;5.0;;
6561;SDS011;3314;50.890;4.722;2024-02-04T07:43:09;12.2;;;4.2;;
6561;SDS011;3314;50.890;4.722;2024-02-04T07:45:12;16.2;;;5.2;;
6561;SDS011;3314;50.890;4.722;2024-02-04T07:47:12;15.6;;;5.6;;
6561;SDS011;3314;50.890;4.722;2024-02-04T07:49:14;11.7;;;4.7;;
6561;SDS011;3314;50.890;4.722;2024-02-04T07:51:03;16.5;;;6.1;;
6561;SDS011;3314;50.890;4.722;2024-02-04T07:53:04;14.6;;;5.2;;
6561;SDS011;3314;50.890;4.722;2024-02-04T07:55:08;17.2;;;5.6;;
6561;SDS011;3314;50.890;4.722;2024-02-04T07:57:19;14.1;;;6.0;;
6561;SDS011;3314;50.890;4.722;2024-02-04T07:59:09;15.8;;;5.8;;
6561;SDS011;3314;50.890;4.722;2024-02-04T08:01:09;14.1;;;5.9;;
6561;SDS011;3314;50.890;4.722;2024-02-04T08:03:11;15.7;;;4.9;;
6561;SDS011;3314;50.890;4.722;2024-02-04T08:05:00;17.6;;;5.9;;
6561;SDS011;3314;50.890;4.722;2024-02-04T08:07:03;19.0;;;6.1;;
6561;SDS011;3314;50.890;4.722;2024-02-04T08:09:04;14.7;;;5.7;;
6561;SDS011;3314;50.890;4.722;2024-02-04T08:11:04;16.3;;;5.2;;
6561;SDS011;3314;50.890;4.722;2024-02-04T08:13:04;15.7;;;5.2;;
6561;SDS011;3314;50.890;4.722;2024-02-04T08:15:07;15.7;;;5.5;;
6561;SDS011;3314;50.890;4.722;2024-02-04T08:17:11;15.4;;;5.7;;
6561;SDS011;3314;50.890;4.722;2024-02-04T08:18:59;13.5;;;5.5;;
6561;SDS011;3314;50.890;4.722;2024-02-04T08:21:01;12.8;;;4.7;;
6561;SDS011;3314;50.890;4.722;2024-02-04T08:23:04;12.3;;;4.5;;
6561;SDS011;3314;50.890;4.722;2024-02-04T08:25:06;11.9;;;5.1;;
6561;SDS011;3314;50.890;4.722;2024-02-04T08:27:07;17.4;;;4.7;;
6561;SDS011;3314;50.890;4.722;2024-02-04T08:29:08;13.7;;;4.4;;
6561;SDS011;3314;50.890;4.722;2024-02-04T08:30:58;18.9;;;5.1;;
6561;SDS011;3314;50.890;4.722;2024-02-04T08:33:01;12.7;;;4.3;;
6561;SDS011;3314;50.890;4.722;2024-02-04T08:35:05;12.2;;;4.3;;
6561;SDS011;3314;50.890;4.722;2024-02-04T08:37:07;18.7;;;4.3;;
6561;SDS011;3314;50.890;4.722;2024-02-04T08:38:57;10.9;;;4.6;;
6561;SDS011;3314;50.890;4.722;2024-02-04T08:40:58;12.0;;;4.3;;
6561;SDS011;3314;50.890;4.722;2024-02-04T08:43:01;12.8;;;4.3;;
6561;SDS011;3314;50.890;4.722;2024-02-04T08:45:04;14.9;;;4.3;;
6561;SDS011;3314;50.890;4.722;2024-02-04T08:46:56;17.7;;;4.5;;
6561;SDS011;3314;50.890;4.722;2024-02-04T08:49:01;10.9;;;4.2;;
6561;SDS011;3314;50.890;4.722;2024-02-04T08:51:10;13.0;;;3.8;;
6561;SDS011;3314;50.890;4.722;2024-02-04T08:53:03;12.0;;;3.6;;
6561;SDS011;3314;50.890;4.722;2024-02-04T08:55:07;10.7;;;3.7;;
6561;SDS011;3314;50.890;4.722;2024-02-04T08:57:00;10.3;;;3.6;;
6561;SDS011;3314;50.890;4.722;2024-02-04T08:59:06;10.2;;;3.7;;
6561;SDS011;3314;50.890;4.722;2024-02-04T09:00:59;12.8;;;3.2;;
6561;SDS011;3314;50.890;4.722;2024-02-04T09:03:03;9.3;;;3.1;;
6561;SDS011;3314;50.890;4.722;2024-02-04T09:04:56;9.4;;;3.2;;
6561;SDS011;3314;50.890;4.722;2024-02-04T09:06:58;11.1;;;3.7;;
6561;SDS011;3314;50.890;4.722;2024-02-04T09:09:01;11.0;;;3.3;;
6561;SDS011;3314;50.890;4.722;2024-02-04T09:10:52;11.3;;;2.8;;
6561;SDS011;3314;50.890;4.722;2024-02-04T09:12:57;10.0;;;2.9;;
6561;SDS011;3314;50.890;4.722;2024-02-04T09:15:01;15.2;;;3.7;;
6561;SDS011;3314;50.890;4.722;2024-02-04T09:16:54;10.0;;;3.5;;
6561;SDS011;3314;50.890;4.722;2024-02-04T09:18:58;11.3;;;3.6;;
6561;SDS011;3314;50.890;4.722;2024-02-04T09:21:03;14.8;;;3.7;;
6561;SDS011;3314;50.890;4.722;2024-02-04T09:22:56;10.1;;;3.4;;
6561;SDS011;3314;50.890;4.722;2024-02-04T09:24:58;9.9;;;3.0;;
6561;SDS011;3314;50.890;4.722;2024-02-04T09:26:50;10.5;;;3.1;;
6561;SDS011;3314;50.890;4.722;2024-02-04T09:28:50;11.5;;;3.4;;
6561;SDS011;3314;50.890;4.722;2024-02-04T09:30:52;10.4;;;3.0;;
6561;SDS011;3314;50.890;4.722;2024-02-04T09:32:54;13.1;;;3.3;;
6561;SDS011;3314;50.890;4.722;2024-02-04T09:34:56;9.0;;;3.1;;
6561;SDS011;3314;50.890;4.722;2024-02-04T09:36:59;9.1;;;2.8;;
6561;SDS011;3314;50.890;4.722;2024-02-04T09:38:50;10.5;;;3.0;;
6561;SDS011;3314;50.890;4.722;2024-02-04T09:40:52;13.9;;;2.7;;
6561;SDS011;3314;50.890;4.722;2024-02-04T09:42:56;12.0;;;2.5;;
6561;SDS011;3314;50.890;4.722;2024-02-04T09:44:47;13.0;;;2.9;;
6561;SDS011;3314;50.890;4.722;2024-02-04T09:46:49;9.5;;;2.4;;
6561;SDS011;3314;50.890;4.722;2024-02-04T09:48:50;9.9;;;2.0;;
6561;SDS011;3314;50.890;4.722;2024-02-04T09:50:53;8.4;;;2.1;;
6561;SDS011;3314;50.890;4.722;2024-02-04T09:52:58;8.9;;;1.9;;
6561;SDS011;3314;50.890;4.722;2024-02-04T09:54:48;8.6;;;2.1;;
6561;SDS011;3314;50.890;4.722;2024-02-04T09:56:52;8.1;;;1.9;;
6561;SDS011;3314;50.890;4.722;2024-02-04T09:58:56;6.1;;;1.8;;
6561;SDS011;3314;50.890;4.722;2024-02-04T10:00:47;7.2;;;1.8;;
6561;SDS011;3314;50.890;4.722;2024-02-04T10:02:47;7.8;;;2.0;;
6561;SDS011;3314;50.890;4.722;2024-02-04T10:04:50;12.2;;;1.8;;
6561;SDS011;3314;50.890;4.722;2024-02-04T10:06:53;8.4;;;2.2;;
6561;SDS011;3314;50.890;4.722;2024-02-04T10:08:42;8.2;;;2.0;;
6561;SDS011;3314;50.890;4.722;2024-02-04T10:10:46;8.0;;;2.1;;
6561;SDS011;3314;50.890;4.722;2024-02-04T10:12:47;8.1;;;1.6;;
6561;SDS011;3314;50.890;4.722;2024-02-04T10:14:48;8.8;;;1.8;;
6561;SDS011;3314;50.890;4.722;2024-02-04T10:16:48;12.3;;;2.3;;
6561;SDS011;3314;50.890;4.722;2024-02-04T10:18:51;6.4;;;1.5;;
6561;SDS011;3314;50.890;4.722;2024-02-04T10:20:42;13.0;;;2.1;;
6561;SDS011;3314;50.890;4.722;2024-02-04T10:22:48;11.4;;;2.2;;
6561;SDS011;3314;50.890;4.722;2024-02-04T10:24:50;9.3;;;2.0;;
6561;SDS011;3314;50.890;4.722;2024-02-04T10:26:43;9.6;;;2.5;;
6561;SDS011;3314;50.890;4.722;2024-02-04T10:28:47;9.0;;;1.6;;
6561;SDS011;3314;50.890;4.722;2024-02-04T10:30:50;10.0;;;2.2;;
6561;SDS011;3314;50.890;4.722;2024-02-04T10:32:38;8.1;;;1.9;;
6561;SDS011;3314;50.890;4.722;2024-02-04T10:34:41;7.1;;;1.8;;
6561;SDS011;3314;50.890;4.722;2024-02-04T10:36:41;9.1;;;2.0;;
6561;SDS011;3314;50.890;4.722;2024-02-04T10:38:43;10.7;;;2.3;;
6561;SDS011;3314;50.890;4.722;2024-02-04T10:40:46;8.8;;;2.4;;
6561;SDS011;3314;50.890;4.722;2024-02-04T10:42:48;8.3;;;2.0;;
6561;SDS011;3314;50.890;4.722;2024-02-04T10:44:39;8.4;;;2.3;;
6561;SDS011;3314;50.890;4.722;2024-02-04T10:46:41;10.2;;;2.2;;
6561;SDS011;3314;50.890;4.722;2024-02-04T10:48:45;7.3;;;1.8;;
6561;SDS011;3314;50.890;4.722;2024-02-04T10:50:35;9.9;;;2.6;;
6561;SDS011;3314;50.890;4.722;2024-02-04T10:52:40;9.1;;;2.2;;
6561;SDS011;3314;50.890;4.722;2024-02-04T10:54:46;9.2;;;2.3;;
6561;SDS011;3314;50.890;4.722;2024-02-04T10:56:37;10.9;;;2.4;;
6561;SDS011;3314;50.890;4.722;2024-02-04T10:58:42;10.2;;;2.7;;
6561;SDS011;3314;50.890;4.722;2024-02-04T11:00:43;7.0;;;2.0;;
6561;SDS011;3314;50.890;4.722;2024-02-04T11:02:43;8.8;;;2.5;;
6561;SDS011;3314;50.890;4.722;2024-02-04T11:04:35;9.2;;;2.3;;
6561;SDS011;3314;50.890;4.722;2024-02-04T11:06:38;12.6;;;2.1;;
6561;SDS011;3314;50.890;4.722;2024-02-04T11:08:42;6.8;;;2.0;;
6561;SDS011;3314;50.890;4.722;2024-02-04T11:10:45;8.7;;;1.9;;
6561;SDS011;3314;50.890;4.722;2024-02-04T11:12:33;8.9;;;2.1;;
6561;SDS011;3314;50.890;4.722;2024-02-04T11:14:37;7.9;;;1.9;;
6561;SDS011;3314;50.890;4.722;2024-02-04T11:16:46;8.1;;;1.8;;
6561;SDS011;3314;50.890;4.722;2024-02-04T11:18:44;7.6;;;2.2;;
6561;SDS011;3314;50.890;4.722;2024-02-04T11:20:41;10.1;;;2.2;;
6561;SDS011;3314;50.890;4.722;2024-02-04T11:22:42;7.1;;;1.8;;
6561;SDS011;3314;50.890;4.722;2024-02-04T11:24:45;8.4;;;2.0;;
6561;SDS011;3314;50.890;4.722;2024-02-04T11:26:43;5.6;;;1.3;;
6561;SDS011;3314;50.890;4.722;2024-02-04T11:28:33;11.9;;;1.7;;
6561;SDS011;3314;50.890;4.722;2024-02-04T11:30:36;12.6;;;1.9;;
6561;SDS011;3314;50.890;4.722;2024-02-04T11:32:36;6.5;;;1.6;;
6561;SDS011;3314;50.890;4.722;2024-02-04T11:34:38;7.7;;;1.6;;
6561;SDS011;3314;50.890;4.722;2024-02-04T11:36:41;6.9;;;1.2;;
6561;SDS011;3314;50.890;4.722;2024-02-04T11:38:32;7.0;;;1.7;;
6561;SDS011;3314;50.890;4.722;2024-02-04T11:40:34;8.5;;;1.4;;
6561;SDS011;3314;50.890;4.722;2024-02-04T11:42:37;6.7;;;1.7;;
6561;SDS011;3314;50.890;4.722;2024-02-04T11:44:39;8.6;;;1.6;;
6561;SDS011;3314;50.890;4.722;2024-02-04T11:46:27;10.2;;;1.6;;
6561;SDS011;3314;50.890;4.722;2024-02-04T11:48:33;8.6;;;1.2;;
6561;SDS011;3314;50.890;4.722;2024-02-04T11:50:36;7.3;;;1.6;;
6561;SDS011;3314;50.890;4.722;2024-02-04T11:52:27;9.6;;;1.3;;
6561;SDS011;3314;50.890;4.722;2024-02-04T11:54:29;6.2;;;1.4;;
6561;SDS011;3314;50.890;4.722;2024-02-04T11:56:29;5.1;;;1.1;;
6561;SDS011;3314;50.890;4.722;2024-02-04T11:58:32;7.1;;;1.3;;
6561;SDS011;3314;50.890;4.722;2024-02-04T12:00:36;8.0;;;1.6;;
6561;SDS011;3314;50.890;4.722;2024-02-04T12:02:29;7.3;;;1.4;;
6561;SDS011;3314;50.890;4.722;2024-02-04T12:04:29;6.0;;;1.2;;
6561;SDS011;3314;50.890;4.722;2024-02-04T12:06:31;5.8;;;1.2;;
6561;SDS011;3314;50.890;4.722;2024-02-04T12:08:34;6.4;;;1.2;;
6561;SDS011;3314;50.890;4.722;2024-02-04T12:10:24;6.5;;;1.2;;
6561;SDS011;3314;50.890;4.722;2024-02-04T12:12:29;6.4;;;1.1;;
6561;SDS011;3314;50.890;4.722;2024-02-04T12:14:31;11.0;;;1.8;;
6561;SDS011;3314;50.890;4.722;2024-02-04T12:16:36;5.5;;;1.2;;
6561;SDS011;3314;50.890;4.722;2024-02-04T12:18:26;6.5;;;1.4;;
6561;SDS011;3314;50.890;4.722;2024-02-04T12:20:28;10.0;;;1.2;;
6561;SDS011;3314;50.890;4.722;2024-02-04T12:22:30;6.5;;;1.2;;
6561;SDS011;3314;50.890;4.722;2024-02-04T12:24:30;6.5;;;1.4;;
6561;SDS011;3314;50.890;4.722;2024-02-04T12:26:30;5.9;;;1.3;;
6561;SDS011;3314;50.890;4.722;2024-02-04T12:28:30;6.9;;;1.3;;
6561;SDS011;3314;50.890;4.722;2024-02-04T12:30:32;7.6;;;1.4;;
6561;SDS011;3314;50.890;4.722;2024-02-04T12:32:23;7.7;;;1.4;;
6561;SDS011;3314;50.890;4.722;2024-02-04T12:34:23;5.7;;;1.0;;
6561;SDS011;3314;50.890;4.722;2024-02-04T12:36:22;5.8;;;1.0;;
6561;SDS011;3314;50.890;4.722;2024-02-04T12:38:23;5.7;;;1.5;;